Time;durP1;ratioP1;P1;durP2;ratioP2;P2;SDS_P1;SDS_P2;PMS_P1;PMS_P2;Temp;Humidity;BMP_temperature;BMP_pressure;BME280_temperature;BME280_humidity;BME280_pressure;Samples;Min_cycle;Max_cycle;Signal;HPM_P1;HPM_P2
2023/09/21 00:01:39;;;;;;;5.00;1.20;;;;;;;16.49;100.00;99644.41;5226680;28;20021;-71
2023/09/21 00:04:09;;;;;;;1.50;1.00;;;;;;;16.48;100.00;99641.88;5232705;28;20354;-70
2023/09/21 00:06:40;;;;;;;4.00;1.33;;;;;;;16.47;100.00;99638.41;5228056;28;20033;-70
2023/09/21 00:09:10;;;;;;;2.97;1.10;;;;;;;16.34;100.00;99634.97;5230089;28;20277;-70
2023/09/21 00:11:42;;;;;;;2.88;1.27;;;;;;;16.26;100.00;99636.47;5229451;28;20097;-70
2023/09/21 00:14:12;;;;;;;2.58;1.20;;;;;;;16.31;100.00;99636.97;5232760;28;20469;-70
2023/09/21 00:16:44;;;;;;;5.18;1.42;;;;;;;16.23;100.00;99627.00;5217671;28;20082;-70
2023/09/21 00:19:16;;;;;;;1.60;0.98;;;;;;;16.24;100.00;99622.56;5223146;28;20555;-70
2023/09/21 00:21:46;;;;;;;2.58;1.23;;;;;;;16.23;100.00;99615.63;5227879;28;20112;-71
2023/09/21 00:24:17;;;;;;;3.42;1.23;;;;;;;16.22;100.00;99616.56;5232390;28;20300;-71
2023/09/21 00:26:50;;;;;;;4.32;1.20;;;;;;;16.24;100.00;99615.47;5230309;28;20016;-71
2023/09/21 00:29:20;;;;;;;2.72;1.20;;;;;;;16.16;100.00;99612.59;5228996;28;20667;-70
2023/09/21 00:31:51;;;;;;;2.33;1.10;;;;;;;16.16;100.00;99615.22;5232036;28;20029;-71
2023/09/21 00:34:21;;;;;;;3.67;1.45;;;;;;;16.10;100.00;99610.41;5227143;28;20117;-70
2023/09/21 00:36:51;;;;;;;3.45;1.33;;;;;;;16.06;100.00;99602.84;5225601;28;20074;-71
2023/09/21 00:39:22;;;;;;;3.80;1.25;;;;;;;16.14;100.00;99603.09;5230743;28;20024;-70
2023/09/21 00:41:52;;;;;;;2.60;1.20;;;;;;;15.97;100.00;99606.13;5254451;22;20066;-72
2023/09/21 00:44:23;;;;;;;2.45;1.30;;;;;;;15.91;100.00;99598.69;5228796;28;20029;-73
2023/09/21 00:46:53;;;;;;;3.13;1.45;;;;;;;15.88;100.00;99605.00;5230329;28;20558;-74
2023/09/21 00:49:23;;;;;;;4.57;1.27;;;;;;;15.91;100.00;99594.22;5232510;28;20104;-73
2023/09/21 00:51:54;;;;;;;2.42;1.10;;;;;;;15.88;100.00;99597.09;5231157;28;20035;-73
2023/09/21 00:54:25;;;;;;;1.80;0.98;;;;;;;15.91;100.00;99588.13;5230986;28;20056;-72
2023/09/21 00:56:56;;;;;;;2.90;1.10;;;;;;;15.84;100.00;99592.19;5231277;28;20070;-72
2023/09/21 00:59:26;;;;;;;2.63;1.20;;;;;;;15.86;100.00;99592.91;5229473;28;20024;-72
2023/09/21 01:01:57;;;;;;;2.45;1.17;;;;;;;15.89;100.00;99582.97;5227892;28;20104;-74
2023/09/21 01:04:27;;;;;;;3.83;1.30;;;;;;;15.92;100.00;99580.13;5231590;28;20569;-72
2023/09/21 01:06:58;;;;;;;4.18;1.20;;;;;;;15.85;100.00;99578.88;5230946;28;20035;-72
2023/09/21 01:09:28;;;;;;;5.22;1.25;;;;;;;15.81;100.00;99577.41;5230366;28;20024;-72
2023/09/21 01:11:59;;;;;;;3.38;1.17;;;;;;;15.77;100.00;99581.25;5227443;28;20595;-72
2023/09/21 01:14:32;;;;;;;4.10;1.20;;;;;;;15.74;100.00;99570.06;5228681;28;20550;-72
2023/09/21 01:17:02;;;;;;;2.45;1.25;;;;;;;15.68;100.00;99573.97;5228987;28;20440;-73
2023/09/21 01:19:33;;;;;;;2.67;1.15;;;;;;;15.60;100.00;99578.97;5221676;28;20041;-72
2023/09/21 01:22:13;;;;;;;3.88;1.30;;;;;;;15.55;100.00;99573.19;5229078;28;20078;-72
2023/09/21 01:24:44;;;;;;;2.28;1.23;;;;;;;15.51;100.00;99569.09;5228754;28;20040;-72
2023/09/21 01:27:14;;;;;;;1.90;1.00;;;;;;;15.46;100.00;99570.34;5232015;28;20098;-72
2023/09/21 01:29:44;;;;;;;2.83;1.50;;;;;;;15.37;100.00;99577.13;5228824;28;20020;-72
2023/09/21 01:32:15;;;;;;;4.40;1.63;;;;;;;15.39;100.00;99566.50;5230914;28;20166;-72
2023/09/21 01:34:46;;;;;;;4.20;1.48;;;;;;;15.43;100.00;99565.31;5225317;28;20020;-72
2023/09/21 01:37:17;;;;;;;2.25;1.25;;;;;;;15.44;100.00;99561.72;5227641;28;20317;-71
2023/09/21 01:39:48;;;;;;;2.75;1.42;;;;;;;15.48;100.00;99565.81;5227643;28;20028;-72
2023/09/21 01:42:19;;;;;;;3.28;1.40;;;;;;;15.52;100.00;99562.03;5226431;28;20482;-72
2023/09/21 01:44:49;;;;;;;4.20;1.17;;;;;;;15.49;100.00;99559.59;5226641;28;20036;-72
2023/09/21 01:47:19;;;;;;;1.90;1.08;;;;;;;15.54;100.00;99558.31;5224283;28;20098;-72
2023/09/21 01:49:50;;;;;;;4.75;1.20;;;;;;;15.53;100.00;99551.38;5224055;28;20075;-72
2023/09/21 01:52:20;;;;;;;4.22;1.58;;;;;;;15.52;100.00;99554.97;5228550;28;20085;-72
2023/09/21 01:54:51;;;;;;;6.07;1.58;;;;;;;15.48;100.00;99550.88;5228122;28;21423;-72
2023/09/21 01:57:21;;;;;;;4.03;1.15;;;;;;;15.49;100.00;99547.28;5231030;28;20020;-73
2023/09/21 01:59:51;;;;;;;3.55;1.38;;;;;;;15.55;100.00;99541.56;5230413;28;20045;-72
2023/09/21 02:02:21;;;;;;;2.95;1.30;;;;;;;15.51;100.00;99540.13;5228160;28;20111;-72
2023/09/21 02:04:52;;;;;;;1.88;1.30;;;;;;;15.54;100.00;99539.88;5226616;28;20017;-72
2023/09/21 02:07:22;;;;;;;2.28;1.40;;;;;;;15.60;100.00;99530.72;5230172;28;20048;-72
2023/09/21 02:09:53;;;;;;;3.50;1.40;;;;;;;15.58;100.00;99527.34;5226345;28;20484;-72
2023/09/21 02:12:24;;;;;;;2.83;1.40;;;;;;;15.57;100.00;99525.66;5228866;28;20493;-71
2023/09/21 02:14:54;;;;;;;2.75;1.27;;;;;;;15.49;100.00;99539.38;5228242;28;20040;-73
2023/09/21 02:17:25;;;;;;;2.45;1.40;;;;;;;15.42;100.00;99527.63;5225093;28;20058;-71
2023/09/21 02:19:55;;;;;;;4.63;1.38;;;;;;;15.34;100.00;99521.22;5228603;28;20100;-72
2023/09/21 02:22:25;;;;;;;3.13;1.50;;;;;;;15.33;100.00;99523.00;5229872;28;20052;-71
2023/09/21 02:24:56;;;;;;;4.75;1.65;;;;;;;15.37;100.00;99523.63;5230691;28;20385;-72
2023/09/21 02:27:26;;;;;;;4.07;1.40;;;;;;;15.33;100.00;99517.75;5228445;28;20035;-72
2023/09/21 02:29:57;;;;;;;3.85;1.25;;;;;;;15.32;100.00;99521.31;5230376;28;20066;-72
2023/09/21 02:32:28;;;;;;;3.90;1.70;;;;;;;15.31;100.00;99518.78;5229749;28;20310;-72
2023/09/21 02:34:59;;;;;;;2.92;1.25;;;;;;;15.35;100.00;99510.56;5230849;28;20032;-72
2023/09/21 02:37:30;;;;;;;5.43;1.63;;;;;;;15.30;100.00;99512.69;5229517;28;20028;-72
2023/09/21 02:40:01;;;;;;;2.85;1.30;;;;;;;15.40;100.00;99511.06;5230520;28;20501;-72
2023/09/21 02:42:31;;;;;;;2.92;1.38;;;;;;;15.33;100.00;99498.50;5229762;28;20032;-72
2023/09/21 02:45:04;;;;;;;4.10;1.27;;;;;;;15.44;100.00;99494.13;5229722;28;20028;-72
2023/09/21 02:47:35;;;;;;;3.63;1.60;;;;;;;15.35;100.00;99504.47;5227928;28;20059;-72
2023/09/21 02:50:14;;;;;;;3.38;1.25;;;;;;;15.41;100.00;99494.34;5228728;28;20040;-72
2023/09/21 02:52:54;;;;;;;4.75;1.42;;;;;;;15.35;100.00;99505.31;5224139;28;20071;-72
2023/09/21 02:55:26;;;;;;;2.92;1.17;;;;;;;15.35;100.00;99489.50;5228551;28;20027;-71
2023/09/21 02:57:59;;;;;;;3.47;1.50;;;;;;;15.34;100.00;99490.47;5231122;28;20021;-72
2023/09/21 03:00:34;;;;;;;2.35;1.40;;;;;;;15.40;100.00;99492.63;5224243;28;20055;-72
2023/09/21 03:03:06;;;;;;;4.15;1.67;;;;;;;15.41;100.00;99483.81;5227129;28;20115;-72
2023/09/21 03:05:38;;;;;;;3.40;1.70;;;;;;;15.42;100.00;99485.50;5222565;28;20028;-72
2023/09/21 03:08:13;;;;;;;2.65;1.40;;;;;;;15.36;100.00;99483.28;5229773;28;20103;-72
2023/09/21 03:10:49;;;;;;;2.97;1.27;;;;;;;15.37;100.00;99479.69;5223806;28;20017;-72
2023/09/21 03:13:21;;;;;;;4.00;1.55;;;;;;;15.32;100.00;99481.84;5229099;28;20040;-72
2023/09/21 03:15:54;;;;;;;4.97;1.40;;;;;;;15.30;100.00;99478.47;5226763;28;20032;-72
2023/09/21 03:18:25;;;;;;;3.53;1.55;;;;;;;15.34;100.00;99472.03;5225629;28;20021;-71
2023/09/21 03:20:55;;;;;;;3.35;1.33;;;;;;;15.34;100.00;99473.84;5226969;28;20028;-72
2023/09/21 03:23:28;;;;;;;3.58;1.58;;;;;;;15.34;100.00;99472.03;5227313;28;20056;-72
2023/09/21 03:25:58;;;;;;;4.43;1.45;;;;;;;15.28;100.00;99474.22;5226576;28;20118;-72
2023/09/21 03:28:28;;;;;;;3.17;1.40;;;;;;;15.23;100.00;99471.09;5223953;28;20020;-72
2023/09/21 03:30:58;;;;;;;2.85;1.27;;;;;;;15.24;100.00;99476.25;5222746;28;20028;-72
2023/09/21 03:33:29;;;;;;;3.47;1.80;;;;;;;15.24;100.00;99471.00;5222974;28;20101;-72
2023/09/21 03:35:59;;;;;;;3.70;1.70;;;;;;;15.23;100.00;99471.94;5224923;28;20052;-72
2023/09/21 03:38:29;;;;;;;3.22;1.60;;;;;;;15.23;100.00;99469.31;5225301;28;20031;-72
2023/09/21 03:41:00;;;;;;;3.60;1.67;;;;;;;15.26;100.00;99460.34;5223431;28;20031;-72
2023/09/21 03:43:30;;;;;;;3.50;1.70;;;;;;;15.25;100.00;99459.50;5225781;28;20103;-72
2023/09/21 03:46:01;;;;;;;5.93;1.88;;;;;;;15.24;100.00;99455.22;5225487;28;20116;-73
2023/09/21 03:48:35;;;;;;;3.22;1.52;;;;;;;15.21;100.00;99460.66;5226988;28;20043;-72
2023/09/21 03:51:05;;;;;;;3.45;1.55;;;;;;;15.22;100.00;99456.25;5229191;28;20070;-72
2023/09/21 03:53:36;;;;;;;3.97;1.77;;;;;;;15.12;100.00;99453.44;5224933;28;20304;-72
2023/09/21 03:56:06;;;;;;;4.15;1.80;;;;;;;15.19;100.00;99453.84;5224998;28;20501;-72
2023/09/21 03:58:36;;;;;;;5.15;1.75;;;;;;;15.15;100.00;99458.47;5223238;28;20021;-72
2023/09/21 04:01:09;;;;;;;4.53;1.80;;;;;;;15.21;100.00;99455.41;5228948;28;20355;-72
2023/09/21 04:03:39;;;;;;;3.90;1.70;;;;;;;15.20;100.00;99455.53;5224933;28;20024;-72
2023/09/21 04:06:09;;;;;;;3.08;1.45;;;;;;;15.27;100.00;99449.72;5229369;28;20029;-72
2023/09/21 04:08:40;;;;;;;3.05;1.40;;;;;;;15.24;100.00;99455.22;5225512;28;20068;-72
2023/09/21 04:11:10;;;;;;;3.47;1.60;;;;;;;15.21;100.00;99450.13;5229940;28;20474;-72
2023/09/21 04:13:40;;;;;;;4.53;1.73;;;;;;;15.25;100.00;99446.34;5228640;28;20021;-72
2023/09/21 04:16:10;;;;;;;4.50;1.73;;;;;;;15.35;100.00;99451.81;5234627;28;20054;-72
2023/09/21 04:18:41;;;;;;;5.53;2.20;;;;;;;15.27;100.00;99443.59;5230761;28;20455;-72
2023/09/21 04:21:11;;;;;;;4.47;2.20;;;;;;;15.16;100.00;99433.03;5232563;28;20128;-72
2023/09/21 04:23:43;;;;;;;5.57;1.92;;;;;;;15.24;100.00;99438.56;5231327;28;20036;-72
2023/09/21 04:26:15;;;;;;;4.28;1.88;;;;;;;15.22;100.00;99432.56;5227152;28;20468;-72
2023/09/21 04:28:45;;;;;;;3.72;1.77;;;;;;;15.24;100.00;99431.50;5231316;28;20028;-72
2023/09/21 04:31:16;;;;;;;4.72;1.67;;;;;;;15.19;100.00;99423.09;5228937;28;20313;-72
2023/09/21 04:33:46;;;;;;;3.05;1.55;;;;;;;15.10;100.00;99426.41;5230546;28;20104;-72
2023/09/21 04:36:16;;;;;;;4.43;1.50;;;;;;;15.09;100.00;99424.72;5234414;28;20074;-72
2023/09/21 04:38:50;;;;;;;5.30;1.90;;;;;;;15.01;100.00;99416.53;5228219;28;20024;-72
2023/09/21 04:41:21;;;;;;;3.72;1.48;;;;;;;15.01;100.00;99416.53;5229739;28;20025;-72
2023/09/21 04:43:51;;;;;;;5.00;1.80;;;;;;;14.93;100.00;99418.88;5228194;28;20039;-73
2023/09/21 04:46:21;;;;;;;2.90;1.40;;;;;;;14.93;100.00;99418.88;5226493;28;20508;-72
2023/09/21 04:48:52;;;;;;;4.78;1.90;;;;;;;14.77;100.00;99427.13;5232261;28;20040;-72
2023/09/21 04:51:22;;;;;;;4.20;1.75;;;;;;;14.83;100.00;99420.47;5234050;28;20073;-72
2023/09/21 04:53:52;;;;;;;3.45;1.70;;;;;;;14.84;100.00;99424.78;5226738;28;20427;-72
2023/09/21 04:56:23;;;;;;;5.45;1.70;;;;;;;14.79;100.00;99427.84;5233416;28;20047;-73
2023/09/21 04:58:55;;;;;;;7.80;2.13;;;;;;;14.93;100.00;99425.91;5232047;28;20057;-72
2023/09/21 05:01:27;;;;;;;4.22;1.70;;;;;;;14.89;100.00;99425.31;5230659;28;20025;-72
2023/09/21 05:03:57;;;;;;;6.43;1.98;;;;;;;14.97;100.00;99425.59;5232885;28;20417;-72
2023/09/21 05:06:30;;;;;;;3.10;1.40;;;;;;;14.95;100.00;99422.25;5231803;28;20024;-72
2023/09/21 05:09:00;;;;;;;4.38;1.98;;;;;;;14.96;100.00;99421.28;5232795;28;20100;-72
2023/09/21 05:11:38;;;;;;;5.07;1.65;;;;;;;14.94;100.00;99422.34;5232086;28;20107;-72
2023/09/21 05:14:08;;;;;;;3.38;1.77;;;;;;;14.95;100.00;99416.97;5225380;28;20111;-72
2023/09/21 05:16:40;;;;;;;3.72;1.70;;;;;;;14.88;100.00;99415.72;5231036;28;20505;-72
2023/09/21 05:19:12;;;;;;;5.63;1.80;;;;;;;14.87;100.00;99424.56;5234406;28;20028;-72
2023/09/21 05:21:43;;;;;;;4.00;1.42;;;;;;;14.99;100.00;99422.88;5226617;28;20032;-72
2023/09/21 05:24:14;;;;;;;2.88;1.45;;;;;;;15.05;100.00;99425.88;5234197;28;20041;-72
2023/09/21 05:26:45;;;;;;;3.90;1.52;;;;;;;15.08;100.00;99417.78;5230650;28;20028;-72
2023/09/21 05:29:16;;;;;;;4.07;1.70;;;;;;;15.05;100.00;99417.16;5235127;28;20028;-72
2023/09/21 05:31:47;;;;;;;4.55;1.90;;;;;;;15.09;100.00;99418.59;5230826;28;20047;-72
2023/09/21 05:34:17;;;;;;;4.68;1.95;;;;;;;15.12;100.00;99415.75;5235339;28;20059;-72
2023/09/21 05:36:50;;;;;;;2.75;1.48;;;;;;;15.18;100.00;99413.50;5231983;28;20090;-73
2023/09/21 05:39:20;;;;;;;5.63;1.60;;;;;;;15.28;100.00;99404.00;5232285;28;20504;-73
2023/09/21 05:41:51;;;;;;;2.95;1.45;;;;;;;15.25;100.00;99406.88;5228595;28;20036;-72
2023/09/21 05:44:24;;;;;;;4.10;1.60;;;;;;;15.35;100.00;99394.72;5232717;28;20020;-72
2023/09/21 05:46:55;;;;;;;5.68;1.98;;;;;;;15.41;100.00;99396.06;5227439;28;20425;-73
2023/09/21 05:49:27;;;;;;;3.30;1.60;;;;;;;15.49;100.00;99397.19;5228648;28;20017;-72
2023/09/21 05:51:59;;;;;;;2.15;1.38;;;;;;;15.59;100.00;99398.19;5226667;28;20029;-72
2023/09/21 05:54:30;;;;;;;3.60;1.60;;;;;;;15.72;100.00;99400.75;5228372;28;20090;-72
2023/09/21 05:57:00;;;;;;;2.85;1.52;;;;;;;15.86;100.00;99400.56;5231035;28;20041;-72
2023/09/21 05:59:33;;;;;;;2.95;1.65;;;;;;;15.96;100.00;99404.16;5228044;28;20048;-73
2023/09/21 06:02:12;;;;;;;3.28;1.63;;;;;;;16.03;100.00;99398.28;5230799;28;20036;-73
2023/09/21 06:04:42;;;;;;;3.60;1.35;;;;;;;16.20;100.00;99400.47;5230012;28;20016;-73
2023/09/21 06:07:14;;;;;;;2.97;1.38;;;;;;;16.24;100.00;99396.66;5227723;28;20028;-73
2023/09/21 06:09:45;;;;;;;2.53;1.50;;;;;;;16.30;100.00;99396.19;5231256;28;20104;-72
2023/09/21 06:12:15;;;;;;;3.53;1.70;;;;;;;16.42;100.00;99397.06;5233279;28;20074;-72
2023/09/21 06:14:47;;;;;;;5.60;1.60;;;;;;;16.45;100.00;99387.13;5229744;28;20282;-72
2023/09/21 06:17:18;;;;;;;3.47;1.42;;;;;;;16.50;100.00;99382.31;5233597;28;20118;-71
2023/09/21 06:19:48;;;;;;;3.88;1.67;;;;;;;16.57;100.00;99385.31;5221400;28;20614;-73
2023/09/21 06:22:19;;;;;;;3.15;1.55;;;;;;;16.74;100.00;99380.38;5225855;28;20028;-72
2023/09/21 06:24:50;;;;;;;3.60;1.67;;;;;;;16.90;100.00;99386.09;5225584;28;20246;-73
2023/09/21 06:27:20;;;;;;;2.85;1.48;;;;;;;16.92;100.00;99374.47;5223241;28;20028;-72
2023/09/21 06:29:50;;;;;;;3.75;1.85;;;;;;;16.98;100.00;99378.41;5217808;28;20021;-72
2023/09/21 06:32:22;;;;;;;7.03;1.58;;;;;;;16.98;100.00;99378.41;5224183;28;20031;-72
2023/09/21 06:34:53;;;;;;;2.90;1.50;;;;;;;17.01;100.00;99372.88;5223489;28;20030;-72
2023/09/21 06:37:23;;;;;;;3.72;1.50;;;;;;;17.13;100.00;99375.38;5226496;28;20017;-72
2023/09/21 06:39:55;;;;;;;5.45;1.58;;;;;;;17.19;100.00;99371.41;5224821;28;20651;-72
2023/09/21 06:42:26;;;;;;;3.28;1.60;;;;;;;17.33;100.00;99363.19;5249885;22;20087;-72
2023/09/21 06:44:57;;;;;;;3.65;1.50;;;;;;;17.39;100.00;99362.72;5224437;28;20469;-72
2023/09/21 06:47:28;;;;;;;3.78;1.38;;;;;;;17.58;100.00;99362.84;5225258;28;20116;-73
2023/09/21 06:49:58;;;;;;;4.28;1.38;;;;;;;17.72;100.00;99357.25;5225550;28;20497;-73
2023/09/21 06:52:29;;;;;;;4.05;1.95;;;;;;;17.87;100.00;99359.47;5229003;28;20059;-72
2023/09/21 06:55:00;;;;;;;3.90;1.48;;;;;;;17.92;100.00;99359.91;5225945;28;20031;-73
2023/09/21 06:57:31;;;;;;;5.63;1.58;;;;;;;18.07;100.00;99360.41;5224766;28;20575;-72
2023/09/21 07:00:03;;;;;;;2.97;1.42;;;;;;;18.26;100.00;99355.22;5224512;28;20379;-73
2023/09/21 07:02:34;;;;;;;3.38;1.60;;;;;;;18.26;100.00;99352.56;5228944;28;20095;-72
2023/09/21 07:05:04;;;;;;;4.88;1.40;;;;;;;18.36;100.00;99358.78;5226567;28;20020;-72
2023/09/21 07:07:35;;;;;;;4.35;1.40;;;;;;;18.50;100.00;99366.38;5225870;28;20400;-74
2023/09/21 07:10:07;;;;;;;6.07;1.90;;;;;;;18.84;100.00;99350.88;5227588;28;20082;-73
2023/09/21 07:12:39;;;;;;;5.72;1.80;;;;;;;20.57;93.08;99343.47;5227120;28;20062;-73
2023/09/21 07:15:09;;;;;;;5.82;1.20;;;;;;;22.51;83.58;99351.25;5226403;28;20021;-73
2023/09/21 07:17:40;;;;;;;4.68;1.55;;;;;;;23.37;78.63;99343.72;5232641;28;20512;-73
2023/09/21 07:20:10;;;;;;;3.83;1.40;;;;;;;25.36;71.88;99342.44;5226208;28;20035;-74
2023/09/21 07:22:41;;;;;;;2.75;1.20;;;;;;;25.49;70.08;99342.66;5228717;28;20024;-74
2023/09/21 07:25:11;;;;;;;2.08;1.20;;;;;;;25.82;67.71;99349.44;5224903;28;20025;-74
2023/09/21 07:27:42;;;;;;;3.27;1.20;;;;;;;25.69;68.99;99346.53;5224680;28;20086;-74
2023/09/21 07:30:13;;;;;;;1.60;0.88;;;;;;;26.54;66.63;99343.41;5217444;28;20447;-74
2023/09/21 07:32:44;;;;;;;3.53;0.98;;;;;;;27.13;65.03;99349.34;5226926;28;20032;-74
2023/09/21 07:35:15;;;;;;;5.68;1.30;;;;;;;27.11;65.47;99346.03;5227524;28;20039;-74
2023/09/21 07:37:46;;;;;;;2.28;1.10;;;;;;;27.37;64.58;99340.97;5227393;28;20016;-74
2023/09/21 07:40:21;;;;;;;4.57;1.10;;;;;;;27.78;63.58;99333.94;5226490;28;20021;-74
2023/09/21 07:42:51;;;;;;;2.33;1.17;;;;;;;29.13;61.89;99327.78;5230519;28;20063;-73
2023/09/21 07:45:22;;;;;;;3.65;1.05;;;;;;;28.78;62.66;99328.88;5228403;28;20048;-73
2023/09/21 07:47:54;;;;;;;1.75;1.10;;;;;;;27.85;63.99;99344.75;5229606;28;20043;-73
2023/09/21 07:50:27;;;;;;;3.38;0.90;;;;;;;28.57;61.39;99341.56;5227224;28;20049;-73
2023/09/21 07:52:57;;;;;;;2.33;1.10;;;;;;;29.11;59.76;99329.00;5226879;28;20099;-74
2023/09/21 07:55:28;;;;;;;3.20;1.40;;;;;;;29.11;59.56;99334.41;5228905;28;20686;-73
2023/09/21 07:57:58;;;;;;;4.28;1.23;;;;;;;28.98;59.90;99329.81;5231474;28;20286;-73
2023/09/21 08:00:29;;;;;;;2.90;1.00;;;;;;;29.34;58.46;99327.63;5243815;28;20021;-74
2023/09/21 08:02:59;;;;;;;2.47;0.88;;;;;;;29.43;59.61;99317.50;5230061;28;20675;-74
2023/09/21 08:05:32;;;;;;;3.15;1.10;;;;;;;28.93;60.81;99326.06;5226907;28;20039;-73
2023/09/21 08:08:02;;;;;;;2.17;1.25;;;;;;;28.61;59.74;99321.31;5230377;28;20021;-74
2023/09/21 08:10:33;;;;;;;2.30;1.00;;;;;;;27.72;61.50;99332.03;5233303;28;20032;-74
2023/09/21 08:13:03;;;;;;;2.88;1.13;;;;;;;26.30;65.32;99332.91;5232168;28;20041;-73
2023/09/21 08:15:35;;;;;;;2.03;0.90;;;;;;;24.79;69.16;99333.03;5231632;28;20058;-73
2023/09/21 08:18:07;;;;;;;2.80;1.10;;;;;;;24.79;70.46;99328.50;5229348;28;20294;-73
2023/09/21 08:20:40;;;;;;;2.70;0.85;;;;;;;24.46;71.59;99315.44;5230532;28;20378;-73
2023/09/21 08:23:10;;;;;;;2.97;1.30;;;;;;;24.05;73.44;99315.72;5230540;28;20028;-73
2023/09/21 08:25:41;;;;;;;1.98;1.00;;;;;;;24.57;73.22;99312.41;5227912;28;20019;-73
2023/09/21 08:28:12;;;;;;;3.95;1.10;;;;;;;24.74;71.02;99314.84;5244196;28;20395;-73
2023/09/21 08:30:42;;;;;;;2.45;1.23;;;;;;;24.94;71.16;99315.25;5232838;28;20028;-73
2023/09/21 08:33:12;;;;;;;1.92;1.10;;;;;;;26.95;65.45;99313.19;5227770;28;20024;-73
2023/09/21 08:35:43;;;;;;;3.28;1.30;;;;;;;28.15;63.17;99298.66;5230859;28;21763;-73
2023/09/21 08:38:14;;;;;;;5.25;1.00;;;;;;;28.05;63.29;99300.03;5228581;28;20024;-73
2023/09/21 08:40:50;;;;;;;5.78;1.08;;;;;;;27.76;62.26;99292.19;5227414;28;20090;-73
2023/09/21 08:43:22;;;;;;;1.75;1.10;;;;;;;26.87;64.97;99299.88;5228625;28;20459;-73
2023/09/21 08:45:54;;;;;;;2.33;1.00;;;;;;;25.77;68.52;99315.16;5228978;28;20067;-73
2023/09/21 08:48:26;;;;;;;2.28;1.20;;;;;;;25.72;68.08;99312.22;5231797;28;20052;-72
2023/09/21 08:51:00;;;;;;;2.20;1.10;;;;;;;25.65;69.57;99310.44;5231450;28;20564;-72
2023/09/21 08:53:33;;;;;;;2.60;1.00;;;;;;;25.15;70.99;99312.78;5231271;28;20444;-73
2023/09/21 08:56:04;;;;;;;3.35;1.10;;;;;;;24.31;72.67;99309.13;5229993;28;20028;-73
2023/09/21 08:58:37;;;;;;;2.88;1.40;;;;;;;24.04;74.17;99308.72;5228270;28;20082;-73
2023/09/21 09:01:08;;;;;;;2.80;1.10;;;;;;;23.59;76.71;99306.56;5232619;28;20104;-72
2023/09/21 09:03:39;;;;;;;3.20;1.13;;;;;;;23.58;77.72;99306.72;5231708;28;20599;-73
2023/09/21 09:06:10;;;;;;;5.20;1.10;;;;;;;23.28;77.64;99294.03;5236159;28;20094;-73
2023/09/21 09:08:40;;;;;;;4.25;1.40;;;;;;;23.21;79.25;99288.53;5234055;28;20025;-72
2023/09/21 09:11:34;;;;;;;3.97;1.45;;;;;;;23.16;78.34;99284.72;5232604;28;20029;-72
2023/09/21 09:14:17;;;;;;;2.67;1.20;;;;;;;23.19;79.10;99295.84;5228285;28;20489;-72
2023/09/21 09:16:49;;;;;;;3.58;1.45;;;;;;;23.05;80.30;99288.47;5228366;28;20477;-73
2023/09/21 09:19:20;;;;;;;5.38;1.23;;;;;;;22.90;80.63;99284.81;5224460;28;20350;-72
2023/09/21 09:21:52;;;;;;;4.65;1.30;;;;;;;22.85;81.10;99279.09;5227024;28;20047;-73
2023/09/21 09:24:23;;;;;;;5.47;1.42;;;;;;;22.90;81.36;99276.81;5230087;28;20029;-72
2023/09/21 09:26:54;;;;;;;2.53;1.13;;;;;;;22.87;81.82;99276.28;5230690;28;20508;-73
2023/09/21 09:29:26;;;;;;;3.15;1.52;;;;;;;22.75;81.77;99269.59;5227185;28;20041;-72
2023/09/21 09:31:56;;;;;;;3.88;1.50;;;;;;;22.77;81.12;99271.09;5228472;28;20033;-73
2023/09/21 09:34:28;;;;;;;5.67;1.30;;;;;;;22.93;80.68;99272.97;5228616;28;20287;-73
2023/09/21 09:36:59;;;;;;;2.65;1.30;;;;;;;23.22;80.31;99282.19;5233379;28;20764;-73
2023/09/21 09:39:29;;;;;;;3.83;1.20;;;;;;;23.64;78.86;99282.03;5230192;28;20032;-73
2023/09/21 09:42:03;;;;;;;4.30;1.30;;;;;;;23.90;78.33;99277.38;5232725;28;20036;-73
2023/09/21 09:44:41;;;;;;;5.32;1.52;;;;;;;24.07;76.33;99274.47;5228378;28;20499;-73
2023/09/21 09:47:13;;;;;;;2.95;1.40;;;;;;;24.18;76.28;99260.78;5225999;28;20031;-73
2023/09/21 09:49:47;;;;;;;2.13;1.05;;;;;;;24.49;75.89;99258.13;5227699;28;21064;-72
2023/09/21 09:52:19;;;;;;;2.08;1.40;;;;;;;24.66;75.29;99255.25;5228633;28;20392;-73
2023/09/21 09:54:51;;;;;;;4.97;1.30;;;;;;;24.79;75.19;99260.88;5230920;28;20060;-73
2023/09/21 09:57:23;;;;;;;2.67;1.10;;;;;;;24.66;75.06;99263.25;5230794;28;20037;-72
2023/09/21 09:59:55;;;;;;;7.75;1.60;;;;;;;24.60;76.00;99255.97;5228618;28;20116;-73
2023/09/21 10:02:27;;;;;;;4.30;1.08;;;;;;;24.38;77.58;99253.19;5229038;28;20469;-72
2023/09/21 10:04:57;;;;;;;3.35;1.10;;;;;;;24.55;77.59;99255.63;5231368;28;20085;-73
2023/09/21 10:07:30;;;;;;;3.85;1.00;;;;;;;24.46;80.14;99245.97;5230154;28;20021;-73
2023/09/21 10:10:03;;;;;;;2.05;1.17;;;;;;;24.31;83.56;99247.72;5232928;28;20482;-73
2023/09/21 10:12:34;;;;;;;5.32;1.30;;;;;;;24.39;80.39;99250.31;5229426;28;20031;-73
2023/09/21 10:15:06;;;;;;;2.47;1.33;;;;;;;24.37;81.68;99238.97;5229189;28;20016;-72
2023/09/21 10:17:37;;;;;;;7.70;1.42;;;;;;;24.24;81.11;99241.38;5230873;28;20036;-73
2023/09/21 10:20:14;;;;;;;3.13;1.25;;;;;;;24.09;81.12;99248.47;5231678;28;20381;-73
2023/09/21 10:22:46;;;;;;;2.80;1.15;;;;;;;24.12;81.98;99253.44;5231785;28;20020;-73
2023/09/21 10:25:36;;;;;;;3.40;1.02;;;;;;;23.99;82.09;99250.47;5229371;28;20370;-73
2023/09/21 10:28:28;;;;;;;3.13;1.30;;;;;;;23.68;83.23;99256.69;5225833;28;20025;-72
2023/09/21 10:31:20;;;;;;;2.63;1.27;;;;;;;23.87;81.51;99251.84;5226060;28;20032;-73
2023/09/21 10:33:56;;;;;;;3.92;1.20;;;;;;;23.76;80.44;99246.84;5232978;28;20028;-72
2023/09/21 10:36:28;;;;;;;3.70;1.10;;;;;;;23.87;81.74;99248.34;5232491;28;20029;-72
2023/09/21 10:39:11;;;;;;;4.55;1.30;;;;;;;23.95;82.04;99238.50;5231970;28;20044;-73
2023/09/21 10:41:43;;;;;;;4.03;1.42;;;;;;;23.79;82.60;99242.97;5226906;28;20029;-73
2023/09/21 10:44:51;;;;;;;4.97;1.45;;;;;;;23.87;82.01;99235.81;5223561;28;20511;-73
2023/09/21 10:47:29;;;;;;;2.35;1.17;;;;;;;23.90;80.16;99235.47;5227196;28;20501;-73
2023/09/21 10:50:03;;;;;;;2.53;1.10;;;;;;;23.88;78.83;99224.13;5226526;28;20040;-73
2023/09/21 10:52:34;;;;;;;4.30;1.38;;;;;;;24.02;79.56;99219.94;5216974;28;20496;-72
2023/09/21 10:55:05;;;;;;;5.32;1.30;;;;;;;24.11;79.80;99224.25;5231761;28;20485;-73
2023/09/21 10:57:35;;;;;;;3.60;1.20;;;;;;;24.10;78.85;99215.41;5222366;28;20031;-73
2023/09/21 11:00:08;;;;;;;3.10;1.10;;;;;;;24.12;78.21;99226.75;5234482;28;20428;-73
2023/09/21 11:02:41;;;;;;;4.97;1.23;;;;;;;24.15;79.84;99225.56;5232304;28;20028;-72
2023/09/21 11:05:11;;;;;;;3.00;1.20;;;;;;;24.30;80.56;99231.84;5229135;28;20408;-72
2023/09/21 11:07:51;;;;;;;4.25;1.30;;;;;;;24.09;78.72;99232.44;5230957;28;20033;-73
2023/09/21 11:10:21;;;;;;;2.33;1.30;;;;;;;24.18;81.07;99220.72;5227385;28;20052;-72
2023/09/21 11:12:51;;;;;;;2.28;1.08;;;;;;;24.24;81.08;99230.69;5229962;28;20059;-73
2023/09/21 11:15:22;;;;;;;3.45;1.10;;;;;;;24.39;80.71;99223.63;5228649;28;20051;-73
2023/09/21 11:17:52;;;;;;;3.15;1.40;;;;;;;24.48;81.05;99219.91;5230252;28;20036;-73
2023/09/21 11:20:23;;;;;;;1.98;1.10;;;;;;;24.37;83.94;99224.81;5229467;28;20063;-73
2023/09/21 11:22:54;;;;;;;3.78;1.30;;;;;;;24.27;85.24;99219.69;5230035;28;20510;-73
2023/09/21 11:25:26;;;;;;;2.75;1.30;;;;;;;24.21;84.83;99220.34;5231900;28;20115;-72
2023/09/21 11:27:58;;;;;;;2.35;1.05;;;;;;;24.08;85.36;99213.91;5232992;28;20024;-73
2023/09/21 11:30:28;;;;;;;1.73;1.10;;;;;;;24.05;84.97;99217.75;5232520;28;20074;-73
2023/09/21 11:32:58;;;;;;;5.07;1.45;;;;;;;24.01;88.49;99219.09;5234201;28;20037;-73
2023/09/21 11:35:30;;;;;;;4.47;1.10;;;;;;;23.89;88.15;99215.13;5233136;28;20044;-73
2023/09/21 11:38:03;;;;;;;3.45;1.17;;;;;;;23.82;86.38;99211.50;5236577;28;20256;-73
2023/09/21 11:40:33;;;;;;;3.50;0.98;;;;;;;23.72;86.72;99213.47;5233452;28;20028;-73
2023/09/21 11:43:04;;;;;;;1.90;1.10;;;;;;;23.77;87.18;99211.16;5233614;28;20020;-73
2023/09/21 11:45:34;;;;;;;2.08;0.98;;;;;;;23.64;89.88;99216.16;5230699;28;20511;-73
2023/09/21 11:48:06;;;;;;;1.92;0.73;;;;;;;23.61;81.50;99205.00;5227728;28;20029;-73
2023/09/21 11:50:38;;;;;;;2.05;0.90;;;;;;;23.41;82.11;99198.38;5228391;28;20029;-73